Time;durP1;ratioP1;P1;durP2;ratioP2;P2;SDS_P1;SDS_P2;PMS_P1;PMS_P2;Temp;Humidity;BMP_temperature;BMP_pressure;BME280_temperature;BME280_humidity;BME280_pressure;Samples;Min_cycle;Max_cycle;Signal;HPM_P1;HPM_P2
2024/04/04 00:04:33;;;;;;;0.30;0.10;;;;;;;15.59;54.51;96442.13;10430185;28;20442;-31
2024/04/04 00:09:33;;;;;;;0.10;0.10;;;;;;;15.59;54.02;96434.56;10429780;28;20064;-34
2024/04/04 00:14:36;;;;;;;0.43;0.10;;;;;;;15.57;54.75;96428.66;10429621;28;20283;-32
2024/04/04 00:19:36;;;;;;;0.10;0.10;;;;;;;15.60;54.51;96448.03;10417964;28;20087;-32
2024/04/04 00:24:37;;;;;;;0.00;0.00;;;;;;;15.59;54.47;96434.56;10423708;28;20110;-32
2024/04/04 00:29:37;;;;;;;0.17;0.13;;;;;;;15.60;54.01;96443.81;10432382;28;20114;-32
2024/04/04 00:34:37;;;;;;;0.33;0.10;;;;;;;15.59;54.33;96441.25;10415820;28;20037;-33
2024/04/04 00:39:38;;;;;;;0.20;0.20;;;;;;;15.58;53.98;96437.91;10417717;28;20034;-32
2024/04/04 00:44:38;;;;;;;0.10;0.10;;;;;;;15.59;54.06;96454.75;10419900;28;20512;-31
2024/04/04 00:49:39;;;;;;;0.00;0.00;;;;;;;15.59;54.12;96429.50;10425938;28;20836;-33
2024/04/04 00:54:41;;;;;;;0.03;0.03;;;;;;;15.58;54.22;96437.91;10427174;28;20477;-33
2024/04/04 00:59:42;;;;;;;1.23;0.30;;;;;;;15.57;54.29;96435.38;10420574;28;20112;-34
2024/04/04 01:04:44;;;;;;;0.10;0.10;;;;;;;15.57;54.16;96435.38;10420511;28;20037;-32
2024/04/04 01:09:46;;;;;;;0.05;0.05;;;;;;;15.59;54.30;96443.78;10420008;28;20033;-33
2024/04/04 01:14:47;;;;;;;0.10;0.10;;;;;;;15.56;54.33;96432.03;10415037;28;20099;-32
2024/04/04 01:19:47;;;;;;;0.13;0.00;;;;;;;15.58;54.24;96439.56;10409742;28;20045;-33
2024/04/04 01:24:47;;;;;;;0.30;0.20;;;;;;;15.56;54.49;96439.59;10415074;28;20288;-34
2024/04/04 01:29:48;;;;;;;0.30;0.30;;;;;;;15.57;54.35;96435.38;10427043;28;20091;-33
2024/04/04 01:34:48;;;;;;;0.00;0.00;;;;;;;15.58;54.05;96437.06;10427329;28;20025;-33
2024/04/04 01:39:48;;;;;;;0.00;0.00;;;;;;;15.57;54.36;96441.28;10414216;28;20280;-33
2024/04/04 01:44:49;;;;;;;0.00;0.00;;;;;;;15.56;54.24;96449.69;10418049;28;20047;-34
2024/04/04 01:49:49;;;;;;;0.10;0.10;;;;;;;15.56;54.50;96449.69;10414892;28;20717;-33
2024/04/04 01:54:49;;;;;;;0.20;0.07;;;;;;;15.54;54.27;96448.81;10421816;28;20028;-34
2024/04/04 01:59:53;;;;;;;0.10;0.10;;;;;;;15.54;54.38;96451.31;10420288;28;20314;-34
2024/04/04 02:04:53;;;;;;;0.10;0.10;;;;;;;15.57;54.08;96465.66;10418049;28;20034;-33
2024/04/04 02:09:53;;;;;;;0.03;0.03;;;;;;;15.56;53.98;96453.88;10417284;28;20042;-34
2024/04/04 02:14:54;;;;;;;0.10;0.10;;;;;;;15.52;54.11;96453.00;10411529;28;20029;-33
2024/04/04 02:19:54;;;;;;;0.10;0.10;;;;;;;15.54;54.19;96455.53;10410556;28;20120;-32
2024/04/04 02:24:55;;;;;;;0.10;0.10;;;;;;;15.54;54.51;96458.91;10423545;28;20030;-33
2024/04/04 02:29:55;;;;;;;0.00;0.00;;;;;;;15.54;54.54;96451.31;10416900;28;20033;-33
2024/04/04 02:34:55;;;;;;;0.10;0.10;;;;;;;15.55;54.14;96447.13;10415513;28;20037;-34
2024/04/04 02:39:56;;;;;;;0.10;0.10;;;;;;;15.54;54.26;96446.28;10412935;28;20300;-33
2024/04/04 02:44:56;;;;;;;0.00;0.00;;;;;;;15.53;54.26;96452.16;10411240;28;20041;-33
2024/04/04 02:49:56;;;;;;;0.20;0.10;;;;;;;15.54;54.50;96441.22;10411267;28;20037;-34
2024/04/04 02:54:57;;;;;;;0.00;0.00;;;;;;;15.52;54.19;96434.50;10419753;28;20491;-32
2024/04/04 02:59:57;;;;;;;0.10;0.10;;;;;;;15.53;54.34;96439.56;10423565;28;20491;-34
2024/04/04 03:04:57;;;;;;;0.13;0.10;;;;;;;15.54;54.69;96438.72;10428942;28;20488;-32
2024/04/04 03:09:58;;;;;;;0.00;0.00;;;;;;;15.54;54.10;96441.22;10426825;28;20298;-34
2024/04/04 03:14:58;;;;;;;0.20;0.10;;;;;;;15.51;54.46;96431.13;10415349;28;20030;-32
2024/04/04 03:19:58;;;;;;;0.40;0.10;;;;;;;15.53;54.51;96439.56;10417874;28;20495;-31
2024/04/04 03:24:59;;;;;;;0.20;0.10;;;;;;;15.53;54.36;96449.63;10424053;28;20040;-32
2024/04/04 03:29:59;;;;;;;0.08;0.08;;;;;;;15.52;54.13;96452.19;10416704;28;20400;-33
2024/04/04 03:35:00;;;;;;;0.00;0.00;;;;;;;15.51;54.25;96441.22;10416522;28;20063;-33
2024/04/04 03:40:01;;;;;;;0.00;0.00;;;;;;;15.52;54.34;96437.03;10423828;28;20037;-32
2024/04/04 03:45:02;;;;;;;0.10;0.10;;;;;;;15.54;54.11;96431.16;10422202;28;20420;-33
2024/04/04 03:50:03;;;;;;;0.10;0.10;;;;;;;15.52;54.32;96427.78;10420885;28;20049;-32
2024/04/04 03:55:03;;;;;;;0.10;0.10;;;;;;;15.52;54.22;96416.84;10423468;28;20029;-33
2024/04/04 04:00:09;;;;;;;0.10;0.10;;;;;;;15.52;54.37;96402.53;10420060;28;20037;-32
2024/04/04 04:05:17;;;;;;;0.10;0.10;;;;;;;15.51;54.71;96395.81;10413755;28;20060;-32
2024/04/04 04:10:18;;;;;;;0.73;0.07;;;;;;;15.51;54.04;96400.03;10421748;28;20132;-32
2024/04/04 04:15:18;;;;;;;0.10;0.10;;;;;;;15.52;54.19;96402.53;10414178;28;20911;-32
2024/04/04 04:25:38;;;;;;;0.08;0.00;;;;;;;15.51;54.13;96408.44;10416642;28;20344;-32
2024/04/04 04:30:38;;;;;;;0.23;0.17;;;;;;;15.51;54.25;96408.44;10412295;28;20041;-32
2024/04/04 04:35:38;;;;;;;0.05;0.00;;;;;;;15.51;54.56;96405.06;10417999;28;20033;-32
2024/04/04 04:40:41;;;;;;;0.30;0.07;;;;;;;15.51;54.21;96385.72;10413946;28;20045;-32
2024/04/04 04:45:42;;;;;;;0.10;0.10;;;;;;;15.51;54.50;96385.72;10420076;28;20037;-33
2024/04/04 04:50:42;;;;;;;0.28;0.20;;;;;;;15.50;54.19;96381.53;10418013;28;20037;-32
2024/04/04 04:55:46;;;;;;;0.10;0.10;;;;;;;15.50;54.27;96385.69;10411590;28;20030;-34
2024/04/04 05:00:50;;;;;;;0.20;0.03;;;;;;;15.49;54.16;96382.34;10413737;28;20033;-32
2024/04/04 05:05:51;;;;;;;0.00;0.00;;;;;;;15.49;54.11;96386.53;10418269;28;20029;-33
2024/04/04 05:10:51;;;;;;;0.10;0.10;;;;;;;15.51;54.17;96390.78;10412527;28;20523;-34
2024/04/04 05:15:53;;;;;;;0.00;0.00;;;;;;;15.47;54.16;96373.94;10414566;28;20033;-32
2024/04/04 05:20:59;;;;;;;0.00;0.00;;;;;;;15.50;54.40;96363.00;10413859;28;20280;-33
2024/04/04 05:25:59;;;;;;;0.15;0.10;;;;;;;15.51;54.25;96378.16;10413948;28;20040;-32
2024/04/04 05:31:02;;;;;;;0.03;0.00;;;;;;;15.49;54.20;96384.88;10414957;28;20036;-33
2024/04/04 05:36:03;;;;;;;0.05;0.05;;;;;;;15.51;54.17;96395.00;10413356;28;20021;-33
2024/04/04 05:41:08;;;;;;;0.10;0.10;;;;;;;15.51;53.94;96397.50;10414142;28;20564;-32
2024/04/04 05:46:09;;;;;;;0.10;0.10;;;;;;;15.50;54.02;96385.69;10411689;28;20399;-33
2024/04/04 05:51:09;;;;;;;0.10;0.10;;;;;;;15.50;54.20;96384.03;10412500;28;20033;-32
2024/04/04 05:56:10;;;;;;;0.27;0.10;;;;;;;15.49;54.09;96392.44;10411153;28;20026;-33
2024/04/04 06:01:11;;;;;;;0.30;0.10;;;;;;;15.50;54.32;96398.31;10409135;28;20021;-33
2024/04/04 06:06:11;;;;;;;0.35;0.00;;;;;;;15.50;54.04;96389.09;10411359;28;20041;-34
2024/04/04 06:11:12;;;;;;;0.23;0.10;;;;;;;15.48;54.29;96378.16;10411052;28;20060;-33
2024/04/04 06:16:12;;;;;;;0.10;0.07;;;;;;;15.50;54.11;96384.03;10411914;28;20287;-33
2024/04/04 06:21:12;;;;;;;0.63;0.10;;;;;;;15.49;54.50;96384.88;10409730;28;20041;-33
2024/04/04 06:26:13;;;;;;;0.00;0.00;;;;;;;15.49;54.53;96392.44;10409123;28;20061;-34
2024/04/04 06:31:13;;;;;;;0.00;0.00;;;;;;;15.49;54.36;96394.97;10413446;28;20057;-33
2024/04/04 06:36:16;;;;;;;0.00;0.00;;;;;;;15.47;54.30;96401.69;10417464;28;20029;-34
2024/04/04 06:41:16;;;;;;;0.10;0.08;;;;;;;15.50;54.05;96398.31;10415177;28;20041;-32
2024/04/04 06:46:16;;;;;;;0.00;0.00;;;;;;;15.48;54.53;96400.84;10415460;28;20034;-33
2024/04/04 06:51:16;;;;;;;0.10;0.10;;;;;;;15.49;54.60;96401.69;10413748;28;20048;-34
2024/04/04 06:56:17;;;;;;;0.20;0.20;;;;;;;15.48;54.41;96394.94;10417354;28;20033;-32
2024/04/04 07:01:17;;;;;;;0.10;0.00;;;;;;;15.46;54.34;96386.53;10415973;28;20409;-32
2024/04/04 07:06:18;;;;;;;0.20;0.10;;;;;;;15.48;54.28;96393.28;10416323;28;20033;-32
2024/04/04 07:11:18;;;;;;;0.00;0.00;;;;;;;15.48;54.40;96389.91;10413449;28;20025;-32
2024/04/04 07:16:20;;;;;;;0.20;0.10;;;;;;;15.48;54.16;96400.84;10415365;28;20033;-34
2024/04/04 07:21:21;;;;;;;0.57;0.10;;;;;;;15.49;54.19;96394.97;10406109;28;20554;-33
2024/04/04 07:26:21;;;;;;;0.10;0.00;;;;;;;15.49;54.31;96382.34;10410443;28;20051;-33
2024/04/04 07:31:22;;;;;;;0.10;0.00;;;;;;;15.49;54.04;96387.41;10411601;28;20037;-32
2024/04/04 07:36:22;;;;;;;0.07;0.07;;;;;;;15.49;54.45;96381.50;10412213;28;20037;-32
2024/04/04 07:41:22;;;;;;;0.30;0.10;;;;;;;15.47;54.01;96394.13;10410039;28;20033;-33
2024/04/04 07:46:23;;;;;;;0.03;0.03;;;;;;;15.49;53.98;96399.16;10412054;28;20113;-33
2024/04/04 07:51:24;;;;;;;0.10;0.10;;;;;;;15.49;54.21;96392.44;10411733;28;20033;-32
2024/04/04 07:56:24;;;;;;;0.20;0.10;;;;;;;15.49;54.24;96397.50;10413163;28;20760;-32
2024/04/04 08:01:24;;;;;;;0.20;0.10;;;;;;;15.49;54.04;96399.16;10411385;28;20503;-32
2024/04/04 08:06:25;;;;;;;0.10;0.03;;;;;;;15.48;54.39;96405.91;10411162;28;20080;-32
2024/04/04 08:11:26;;;;;;;0.10;0.10;;;;;;;15.49;54.07;96402.53;10409833;28;20741;-32
2024/04/04 08:16:27;;;;;;;0.20;0.10;;;;;;;15.49;54.03;96407.59;10411076;28;20808;-32
2024/04/04 08:21:28;;;;;;;0.00;0.00;;;;;;;15.48;54.23;96403.38;10411043;28;20041;-33
2024/04/04 08:26:28;;;;;;;0.17;0.10;;;;;;;15.49;54.49;96412.63;10408660;28;20051;-33
2024/04/04 08:31:29;;;;;;;0.30;0.20;;;;;;;15.49;54.33;96412.63;10408932;28;20040;-33
2024/04/04 08:36:29;;;;;;;0.10;0.10;;;;;;;15.49;54.31;96412.63;10409034;28;20039;-32
2024/04/04 08:41:30;;;;;;;0.27;0.13;;;;;;;15.48;54.54;96418.50;10408109;28;20033;-32
2024/04/04 08:46:34;;;;;;;1.02;0.10;;;;;;;15.47;54.18;96409.25;10408728;28;20038;-31
2024/04/04 08:51:35;;;;;;;0.50;0.10;;;;;;;15.44;54.26;96384.00;10406321;28;20120;-32
2024/04/04 08:56:35;;;;;;;0.08;0.00;;;;;;;15.48;54.08;96395.81;10407717;28;20112;-33
2024/04/04 09:01:36;;;;;;;0.10;0.00;;;;;;;15.48;54.44;96390.75;10417104;28;20766;-32
2024/04/04 09:06:37;;;;;;;0.20;0.00;;;;;;;15.47;54.58;96388.22;10442027;28;20664;-32
2024/04/04 09:11:37;;;;;;;0.22;0.13;;;;;;;15.49;54.12;96392.44;10429714;28;20048;-33
2024/04/04 09:16:39;;;;;;;0.27;0.00;;;;;;;15.48;54.20;96390.75;10421497;28;20640;-32
2024/04/04 09:21:40;;;;;;;0.15;0.10;;;;;;;15.49;54.36;96391.59;10445109;28;20445;-32
2024/04/04 09:26:46;;;;;;;0.05;0.00;;;;;;;15.49;54.39;96389.94;10427588;28;21082;-32
2024/04/04 09:31:48;;;;;;;0.20;0.10;;;;;;;15.47;54.41;96376.47;10440057;28;20045;-34
2024/04/04 09:36:52;;;;;;;0.03;0.03;;;;;;;15.49;54.21;96389.06;10438819;28;20025;-33
2024/04/04 09:41:53;;;;;;;0.00;0.00;;;;;;;15.48;54.49;96380.66;10427306;28;20032;-32
2024/04/04 09:46:57;;;;;;;0.68;0.10;;;;;;;15.49;54.16;96382.34;10435203;28;20028;-33
2024/04/04 09:52:02;;;;;;;0.10;0.10;;;;;;;15.49;54.28;96377.31;10426618;28;20090;-31
2024/04/04 09:57:04;;;;;;;0.08;0.08;;;;;;;15.48;54.30;96379.81;10429455;28;20038;-33
2024/04/04 10:02:05;;;;;;;0.03;0.03;;;;;;;15.48;54.37;96395.81;10433617;28;20100;-32
2024/04/04 10:07:06;;;;;;;0.25;0.10;;;;;;;15.47;54.02;96389.06;10441683;28;20032;-34
2024/04/04 10:12:14;;;;;;;0.17;0.10;;;;;;;15.46;54.27;96394.94;10418431;28;20045;-32
2024/04/04 10:17:15;;;;;;;0.03;0.03;;;;;;;15.45;54.40;96400.00;10433886;28;20682;-33
2024/04/04 10:22:18;;;;;;;0.17;0.10;;;;;;;15.45;54.63;96400.81;10424007;28;20072;-32
2024/04/04 10:27:19;;;;;;;0.28;0.10;;;;;;;15.47;54.09;96403.34;10409702;28;20033;-32
2024/04/04 10:32:20;;;;;;;0.00;0.00;;;;;;;15.46;54.51;96397.44;10417512;28;20496;-31
2024/04/04 10:37:20;;;;;;;0.15;0.08;;;;;;;15.48;54.15;96405.91;10422818;28;20044;-32
2024/04/04 10:42:22;;;;;;;0.10;0.10;;;;;;;15.43;54.42;96394.91;10431801;28;20041;-33
2024/04/04 10:47:23;;;;;;;0.00;0.00;;;;;;;15.48;54.30;96403.38;10427886;28;20760;-33
2024/04/04 10:52:23;;;;;;;0.00;0.00;;;;;;;15.47;54.34;96404.22;10424178;28;20052;-33
2024/04/04 10:57:24;;;;;;;0.00;0.00;;;;;;;15.49;54.55;96416.81;10416740;28;20049;-32
2024/04/04 11:02:24;;;;;;;0.10;0.07;;;;;;;15.48;54.41;96418.50;10437664;28;20041;-32
2024/04/04 11:07:33;;;;;;;0.10;0.10;;;;;;;15.48;54.24;96415.13;10423747;28;20033;-33
2024/04/04 11:12:34;;;;;;;0.30;0.10;;;;;;;15.45;54.18;96421.00;10422405;28;20550;-32
2024/04/04 11:17:34;;;;;;;0.10;0.10;;;;;;;15.48;54.24;96430.25;10433618;28;20045;-33
2024/04/04 11:22:35;;;;;;;0.00;0.00;;;;;;;15.41;54.11;96429.38;10435731;28;20045;-34
2024/04/04 11:27:37;;;;;;;0.10;0.05;;;;;;;15.46;54.59;96458.00;10443372;28;20033;-33
2024/04/04 11:32:37;;;;;;;0.25;0.10;;;;;;;15.46;54.59;96480.69;10434761;28;20043;-34
2024/04/04 11:37:37;;;;;;;0.17;0.17;;;;;;;15.46;54.30;96493.31;10435908;28;20662;-33
2024/04/04 11:42:38;;;;;;;0.10;0.00;;;;;;;15.46;54.33;96523.59;10428137;28;20065;-32
2024/04/04 11:47:42;;;;;;;0.10;0.10;;;;;;;15.46;54.50;96513.50;10433991;28;20057;-32
2024/04/04 11:52:45;;;;;;;0.13;0.05;;;;;;;15.46;54.54;96536.19;10429478;28;20854;-33
2024/04/04 11:57:46;;;;;;;0.17;0.10;;;;;;;15.46;54.47;96523.59;10439747;28;20573;-31
2024/04/04 12:02:47;;;;;;;0.10;0.10;;;;;;;15.44;54.39;96550.47;10433638;28;20120;-32
2024/04/04 12:07:47;;;;;;;0.10;0.00;;;;;;;15.46;54.27;96551.31;10420272;28;20458;-32
2024/04/04 12:12:48;;;;;;;0.17;0.10;;;;;;;15.46;54.24;96547.97;10432277;28;20033;-32
2024/04/04 12:17:52;;;;;;;0.00;0.00;;;;;;;15.46;54.17;96556.38;10424379;28;20037;-32
2024/04/04 12:22:52;;;;;;;0.10;0.10;;;;;;;15.46;54.38;96566.47;10431484;28;20041;-32
2024/04/04 12:27:54;;;;;;;0.00;0.00;;;;;;;15.46;54.27;96553.84;10421000;28;20042;-33
2024/04/04 12:32:54;;;;;;;0.00;0.00;;;;;;;15.39;54.28;96539.53;10427967;28;20033;-34
2024/04/04 12:37:55;;;;;;;0.17;0.10;;;;;;;15.45;54.23;96559.72;10433270;28;20499;-34
2024/04/04 12:42:55;;;;;;;0.00;0.00;;;;;;;15.47;54.42;96550.53;10434954;28;20068;-33
2024/04/04 12:47:55;;;;;;;0.10;0.10;;;;;;;15.46;54.17;96528.63;10418045;28;20732;-33
2024/04/04 12:52:56;;;;;;;0.00;0.00;;;;;;;15.46;54.39;96517.72;10426895;28;20095;-32
2024/04/04 12:57:56;;;;;;;0.40;0.10;;;;;;;15.45;54.59;96510.97;10422143;28;20291;-34
2024/04/04 13:02:56;;;;;;;0.10;0.03;;;;;;;15.46;54.71;96503.41;10423516;28;20311;-32
2024/04/04 13:07:57;;;;;;;0.10;0.10;;;;;;;15.46;54.47;96505.09;10430555;28;20041;-34
2024/04/04 13:12:58;;;;;;;0.00;0.00;;;;;;;15.45;54.63;96486.56;10422247;28;20108;-33
2024/04/04 13:17:58;;;;;;;0.10;0.10;;;;;;;15.45;54.57;96490.78;10432879;28;20120;-32
2024/04/04 13:22:59;;;;;;;0.00;0.00;;;;;;;15.33;54.44;96461.28;10417548;28;20260;-31
2024/04/04 13:27:59;;;;;;;0.00;0.00;;;;;;;15.45;54.25;96473.97;10413648;28;20537;-33
2024/04/04 13:32:59;;;;;;;0.00;0.00;;;;;;;15.44;54.28;96469.75;10431206;28;20040;-32
2024/04/04 13:38:00;;;;;;;0.00;0.00;;;;;;;15.45;54.73;96463.88;10417944;28;20041;-33
2024/04/04 13:43:00;;;;;;;0.23;0.00;;;;;;;15.46;54.64;96467.25;10419948;28;20071;-31
2024/04/04 13:48:01;;;;;;;0.00;0.00;;;;;;;15.46;54.35;96464.72;10419826;28;20416;-33
2024/04/04 13:53:02;;;;;;;0.10;0.10;;;;;;;15.44;54.41;96464.72;10421050;28;20103;-33
2024/04/04 13:58:02;;;;;;;0.20;0.00;;;;;;;15.45;54.47;96461.34;10411336;28;20064;-32
2024/04/04 14:03:03;;;;;;;0.00;0.00;;;;;;;15.45;54.43;96458.81;10426542;28;20507;-32
2024/04/04 14:08:03;;;;;;;0.20;0.08;;;;;;;15.45;54.43;96456.31;10422000;28;20056;-32
2024/04/04 14:13:04;;;;;;;0.00;0.00;;;;;;;15.41;54.26;96454.63;10423252;28;20044;-34
2024/04/04 14:18:05;;;;;;;0.05;0.05;;;;;;;15.42;54.61;96436.13;10417175;28;20416;-32
2024/04/04 14:23:05;;;;;;;0.03;0.00;;;;;;;15.44;54.68;96438.66;10413138;28;20484;-32
2024/04/04 14:28:05;;;;;;;0.10;0.00;;;;;;;15.44;54.29;96439.47;10417612;28;20041;-33
2024/04/04 14:33:06;;;;;;;0.10;0.10;;;;;;;15.43;54.61;96435.28;10419423;28;20033;-33
2024/04/04 14:38:06;;;;;;;0.05;0.00;;;;;;;15.45;54.60;96436.13;10412720;28;20041;-33
2024/04/04 14:43:07;;;;;;;0.45;0.08;;;;;;;15.40;54.27;96445.34;10416781;28;20028;-33
2024/04/04 14:48:08;;;;;;;0.10;0.10;;;;;;;15.44;54.26;96449.56;10420950;28;20675;-32
2024/04/04 14:53:08;;;;;;;0.20;0.10;;;;;;;15.44;54.20;96447.06;10421412;28;20032;-33
2024/04/04 14:58:09;;;;;;;0.07;0.07;;;;;;;15.45;54.01;96450.44;10422794;28;20044;-32
2024/04/04 15:03:09;;;;;;;0.10;0.10;;;;;;;15.43;54.34;96437.81;10427581;28;20406;-32
2024/04/04 15:08:09;;;;;;;0.03;0.03;;;;;;;15.45;54.66;96432.78;10422518;28;20039;-32
2024/04/04 15:13:10;;;;;;;0.00;0.00;;;;;;;15.40;54.56;96417.63;10427121;28;20025;-34
2024/04/04 15:18:10;;;;;;;0.30;0.13;;;;;;;15.44;54.28;96431.09;10425837;28;20040;-33
2024/04/04 15:23:11;;;;;;;0.10;0.10;;;;;;;15.43;54.42;96422.66;10427476;28;20156;-34
2024/04/04 15:28:11;;;;;;;0.00;0.00;;;;;;;15.44;54.60;96419.31;10424311;28;20029;-32
2024/04/04 15:33:11;;;;;;;0.00;0.00;;;;;;;15.43;54.61;96406.72;10425379;28;20029;-34
2024/04/04 15:38:12;;;;;;;0.30;0.10;;;;;;;15.43;54.62;96412.56;10420675;28;20037;-32
2024/04/04 15:43:13;;;;;;;0.10;0.10;;;;;;;15.43;54.25;96412.56;10420773;28;20040;-32
2024/04/04 15:48:14;;;;;;;0.10;0.10;;;;;;;15.43;54.77;96397.44;10417633;28;20049;-30
2024/04/04 15:53:15;;;;;;;0.00;0.00;;;;;;;15.43;54.40;96392.41;10422910;28;20032;-33
2024/04/04 15:58:16;;;;;;;0.10;0.00;;;;;;;15.44;54.70;96403.34;10427212;28;20036;-31
2024/04/04 16:03:16;;;;;;;0.10;0.10;;;;;;;15.43;54.57;96392.41;10418791;28;20033;-33
2024/04/04 16:08:16;;;;;;;0.00;0.00;;;;;;;15.42;54.49;96388.19;10425659;28;20299;-32
2024/04/04 16:13:17;;;;;;;0.07;0.07;;;;;;;15.43;54.29;96382.31;10422606;28;20106;-33
2024/04/04 16:18:17;;;;;;;0.00;0.00;;;;;;;15.42;54.43;96383.16;10416869;28;20789;-32
2024/04/04 16:23:18;;;;;;;0.30;0.08;;;;;;;15.43;54.49;96384.00;10422120;28;20303;-34
2024/04/04 16:28:18;;;;;;;0.22;0.10;;;;;;;15.42;54.74;96378.09;10420925;28;20041;-32
2024/04/04 16:33:21;;;;;;;0.00;0.00;;;;;;;15.41;54.62;96378.94;10413818;28;20033;-32
2024/04/04 16:38:22;;;;;;;0.20;0.10;;;;;;;15.43;54.54;96382.31;10418985;28;20040;-33
2024/04/04 16:43:22;;;;;;;0.00;0.00;;;;;;;15.41;54.29;96389.03;10418556;28;20036;-33
2024/04/04 16:48:23;;;;;;;0.00;0.00;;;;;;;15.43;54.37;96402.50;10419387;28;20513;-33
2024/04/04 16:53:23;;;;;;;0.00;0.00;;;;;;;15.43;54.46;96402.50;10415733;28;20025;-33
2024/04/04 16:58:23;;;;;;;0.10;0.03;;;;;;;15.42;54.51;96410.03;10418483;28;20045;-32
2024/04/04 17:03:24;;;;;;;0.20;0.10;;;;;;;15.43;54.56;96420.16;10417706;28;20052;-32
2024/04/04 17:08:26;;;;;;;0.43;0.10;;;;;;;15.43;54.57;96442.03;10418197;28;20275;-34
2024/04/04 17:13:26;;;;;;;0.05;0.00;;;;;;;15.41;54.71;96454.63;10416075;28;20522;-32
2024/04/04 17:18:27;;;;;;;0.10;0.00;;;;;;;15.43;54.53;96470.59;10419675;28;20045;-33
2024/04/04 17:23:28;;;;;;;0.10;0.00;;;;;;;15.43;54.68;96462.19;10416900;28;20809;-31
2024/04/04 17:28:30;;;;;;;0.27;0.17;;;;;;;15.42;54.67;96471.44;10415522;28;20060;-34
2024/04/04 17:33:31;;;;;;;0.00;0.00;;;;;;;15.42;54.59;96481.53;10413293;28;20329;-34
2024/04/04 17:38:31;;;;;;;0.00;0.00;;;;;;;15.43;54.36;96483.19;10411711;28;20444;-32
2024/04/04 17:43:31;;;;;;;0.10;0.10;;;;;;;15.41;54.46;96477.31;10415456;28;20032;-33
2024/04/04 17:48:32;;;;;;;0.03;0.03;;;;;;;15.41;54.71;96487.41;10416980;28;20040;-32
2024/04/04 17:53:33;;;;;;;0.28;0.10;;;;;;;15.42;54.62;96506.75;10414588;28;20032;-32
2024/04/04 17:58:33;;;;;;;0.00;0.00;;;;;;;15.42;54.54;96509.28;10411035;28;20372;-32
2024/04/04 18:03:35;;;;;;;0.10;0.10;;;;;;;15.41;54.65;96515.16;10415827;28;20049;-34
2024/04/04 18:08:36;;;;;;;0.00;0.00;;;;;;;15.39;54.53;96514.28;10412800;28;20028;-33
2024/04/04 18:13:37;;;;;;;0.00;0.00;;;;;;;15.41;54.29;96530.28;10407965;28;20041;-32
2024/04/04 18:18:37;;;;;;;0.13;0.13;;;;;;;15.41;54.16;96530.28;10410407;28;20044;-34
2024/04/04 18:23:39;;;;;;;0.00;0.00;;;;;;;15.41;54.30;96529.41;10410114;28;20422;-32
2024/04/04 18:28:40;;;;;;;0.52;0.10;;;;;;;15.33;54.67;96510.84;10418226;28;20029;-32
2024/04/04 18:33:40;;;;;;;0.10;0.10;;;;;;;15.41;54.54;96542.03;10417646;28;20041;-33
2024/04/04 18:38:47;;;;;;;0.00;0.00;;;;;;;15.40;54.81;96535.31;10413278;28;20037;-33
2024/04/04 18:43:47;;;;;;;0.30;0.15;;;;;;;15.41;54.89;96547.94;10412988;28;20037;-33
2024/04/04 18:48:48;;;;;;;0.10;0.10;;;;;;;15.41;54.67;96537.00;10418249;28;20615;-33
2024/04/04 18:53:48;;;;;;;0.27;0.10;;;;;;;15.42;54.60;96552.16;10416243;28;20034;-33
2024/04/04 18:58:49;;;;;;;0.00;0.00;;;;;;;15.41;54.26;96555.50;10419456;28;20040;-32
2024/04/04 19:03:49;;;;;;;0.03;0.03;;;;;;;15.40;54.52;96553.81;10419438;28;20038;-33
2024/04/04 19:08:50;;;;;;;0.00;0.00;;;;;;;15.40;54.57;96558.88;10415560;28;20045;-32
2024/04/04 19:13:50;;;;;;;0.10;0.10;;;;;;;15.39;54.34;96569.78;10413465;28;20812;-33
2024/04/04 19:18:52;;;;;;;0.10;0.10;;;;;;;15.40;54.65;96568.94;10415349;28;20297;-33
2024/04/04 19:23:52;;;;;;;0.00;0.00;;;;;;;15.39;54.58;96584.91;10412669;28;20033;-32
2024/04/04 19:28:53;;;;;;;0.17;0.17;;;;;;;15.39;54.64;96582.41;10413624;28;20044;-32
2024/04/04 19:33:53;;;;;;;0.10;0.10;;;;;;;15.39;54.36;96587.44;10410218;28;20752;-32
2024/04/04 19:38:54;;;;;;;0.00;0.00;;;;;;;15.39;54.39;96592.50;10412695;28;20029;-32
2024/04/04 19:43:55;;;;;;;0.00;0.00;;;;;;;15.40;54.69;96593.31;10410482;28;20049;-32
2024/04/04 19:48:56;;;;;;;0.20;0.20;;;;;;;15.40;54.88;96588.28;10408931;28;20106;-32
2024/04/04 19:53:56;;;;;;;0.00;0.00;;;;;;;15.39;54.71;96591.63;10413360;28;20311;-34
2024/04/04 19:59:00;;;;;;;0.03;0.03;;;;;;;15.39;54.58;96589.97;10409917;28;20049;-33
2024/04/04 20:04:01;;;;;;;0.22;0.10;;;;;;;15.39;54.53;96597.53;10410380;28;20025;-32
2024/04/04 20:09:02;;;;;;;0.20;0.03;;;;;;;15.38;54.78;96595.84;10409516;28;20495;-33
2024/04/04 20:14:02;;;;;;;0.10;0.07;;;;;;;15.39;54.42;96592.50;10413064;28;20325;-33
2024/04/04 20:19:05;;;;;;;0.00;0.00;;;;;;;15.38;54.82;96593.31;10409361;28;20367;-32
2024/04/04 20:24:05;;;;;;;0.10;0.10;;;;;;;15.37;54.75;96599.16;10408367;28;20400;-34
2024/04/04 20:29:05;;;;;;;0.15;0.05;;;;;;;15.37;54.68;96604.22;10410229;28;20294;-33
2024/04/04 20:34:06;;;;;;;0.00;0.00;;;;;;;15.40;54.55;96609.31;10408433;28;20509;-34
2024/04/04 20:39:07;;;;;;;0.00;0.00;;;;;;;15.39;54.61;96612.66;10409371;28;20038;-32
2024/04/04 20:44:07;;;;;;;0.10;0.10;;;;;;;15.38;54.89;96610.97;10407984;28;20119;-32
2024/04/04 20:49:09;;;;;;;0.17;0.10;;;;;;;15.32;55.18;96600.81;10407274;28;20037;-32
2024/04/04 20:54:09;;;;;;;0.10;0.10;;;;;;;15.38;54.69;96616.03;10407707;28;20476;-33
2024/04/04 20:59:10;;;;;;;0.30;0.10;;;;;;;15.38;54.85;96608.47;10406370;28;20041;-32
2024/04/04 21:04:10;;;;;;;0.10;0.10;;;;;;;15.40;54.53;96623.59;10407572;28;20030;-32
2024/04/04 21:09:11;;;;;;;0.20;0.10;;;;;;;15.38;54.72;96616.03;10405926;28;20037;-33
2024/04/04 21:14:12;;;;;;;0.10;0.00;;;;;;;15.38;54.57;96618.53;10406364;28;20017;-33
2024/04/04 21:19:15;;;;;;;0.10;0.10;;;;;;;15.39;54.86;96617.72;10405085;28;20029;-33
2024/04/04 21:24:16;;;;;;;0.10;0.10;;;;;;;15.38;54.56;96616.03;10404653;28;20037;-32
2024/04/04 21:29:16;;;;;;;0.00;0.00;;;;;;;15.38;54.58;96618.53;10406008;28;20036;-34
2024/04/04 21:34:19;;;;;;;0.10;0.10;;;;;;;15.37;54.78;96614.31;10404429;28;20120;-32
2024/04/04 21:39:20;;;;;;;0.22;0.20;;;;;;;15.37;55.11;96610.94;10404035;28;20079;-29
2024/04/04 21:44:20;;;;;;;0.30;0.20;;;;;;;15.37;54.71;96613.47;10396922;28;20029;-32
2024/04/04 21:49:21;;;;;;;0.05;0.05;;;;;;;15.37;54.71;96621.03;10403330;28;20037;-31
2024/04/04 21:54:21;;;;;;;0.00;0.00;;;;;;;15.35;54.63;96622.72;10428746;28;20095;-33
2024/04/04 21:59:22;;;;;;;0.20;0.00;;;;;;;15.37;54.56;96624.41;10416545;28;20037;-32
2024/04/04 22:04:23;;;;;;;0.10;0.10;;;;;;;15.38;54.95;96620.22;10436017;28;20474;-33
2024/04/04 22:09:24;;;;;;;0.10;0.10;;;;;;;15.36;54.71;96617.66;10414146;28;20048;-32
2024/04/04 22:14:24;;;;;;;0.07;0.07;;;;;;;15.38;54.78;96631.16;10435742;28;20029;-31
2024/04/04 22:19:26;;;;;;;0.30;0.00;;;;;;;15.36;54.82;96627.75;10435703;28;20051;-32
2024/04/04 22:24:26;;;;;;;0.25;0.10;;;;;;;15.35;54.93;96623.53;10442367;28;20458;-33
2024/04/04 22:29:27;;;;;;;0.00;0.00;;;;;;;15.37;55.00;96626.09;10427597;28;20038;-32
2024/04/04 22:34:27;;;;;;;0.05;0.05;;;;;;;15.36;54.89;96632.78;10433521;28;20665;-34
2024/04/04 22:39:28;;;;;;;0.00;0.00;;;;;;;15.36;54.51;96630.28;10409875;28;20075;-33
2024/04/04 22:44:28;;;;;;;0.00;0.00;;;;;;;15.36;55.01;96627.75;10410691;28;20041;-34
2024/04/04 22:49:29;;;;;;;0.10;0.00;;;;;;;15.35;55.07;96628.59;10440494;28;20037;-34
2024/04/04 22:54:29;;;;;;;0.10;0.10;;;;;;;15.36;54.85;96624.41;10423704;28;20045;-32
2024/04/04 22:59:29;;;;;;;0.10;0.10;;;;;;;15.35;54.99;96623.53;10425139;28;20041;-33
2024/04/04 23:04:30;;;;;;;0.10;0.00;;;;;;;15.36;54.61;96622.69;10423371;28;20045;-32
2024/04/04 23:09:30;;;;;;;0.07;0.07;;;;;;;15.36;54.67;96626.91;10415434;28;20487;-32
2024/04/04 23:14:32;;;;;;;0.20;0.10;;;;;;;15.37;54.84;96628.59;10423104;28;20534;-35
2024/04/04 23:19:32;;;;;;;0.03;0.00;;;;;;;15.36;54.73;96622.69;10434133;28;20037;-32
2024/04/04 23:24:34;;;;;;;0.00;0.00;;;;;;;15.35;54.83;96628.59;10431832;28;20041;-32